Time;durP1;ratioP1;P1;durP2;ratioP2;P2;SDS_P1;SDS_P2;PMS_P1;PMS_P2;Temp;Humidity;BMP_temperature;BMP_pressure;BME280_temperature;BME280_humidity;BME280_pressure;Samples;Min_cycle;Max_cycle;Signal;HPM_P1;HPM_P2
2022/08/04 00:00:08;;;;;;;;;;;;;;;21.83;61.91;99340.41;1674610;83;20419;-65
2022/08/04 00:02:44;;;;;;;;;;;;;;;21.75;62.08;99336.75;1702251;84;20179;-62
2022/08/04 00:05:40;;;;;;;;;;;;;;;21.68;62.24;99334.75;1708941;82;20082;-63
2022/08/04 00:08:13;;;;;;;;;;;;;;;21.63;62.21;99330.08;1681540;84;20120;-64
2022/08/04 00:10:39;;;;;;;;;;;;;;;21.55;62.55;99333.19;1663841;85;20700;-63
2022/08/04 00:13:05;;;;;;;;;;;;;;;21.50;62.71;99330.40;1684477;83;20160;-63
2022/08/04 00:15:32;;;;;;;;;;;;;;;21.46;62.89;99333.28;1717751;82;20169;-63
2022/08/04 00:18:02;;;;;;;;;;;;;;;21.39;63.05;99332.10;1714577;83;20144;-63
2022/08/04 00:20:31;;;;;;;;;;;;;;;21.33;63.32;99334.42;1721165;82;20638;-63
2022/08/04 00:22:59;;;;;;;;;;;;;;;21.24;63.49;99329.13;1740393;82;21154;-62
2022/08/04 00:25:25;;;;;;;;;;;;;;;21.21;63.72;99334.19;1712721;82;20097;-62
2022/08/04 00:27:53;;;;;;;;;;;;;;;21.15;63.96;99333.80;1710862;82;20073;-63
2022/08/04 00:30:19;;;;;;;;;;;;;;;21.09;64.08;99328.81;1732593;82;20122;-62
2022/08/04 00:32:46;;;;;;;;;;;;;;;21.03;64.26;99333.83;1740452;82;20437;-62
2022/08/04 00:35:12;;;;;;;;;;;;;;;20.99;64.41;99330.50;1701135;84;21166;-62
2022/08/04 00:37:39;;;;;;;;;;;;;;;20.95;64.53;99328.80;1683671;84;20131;-64
2022/08/04 00:40:09;;;;;;;;;;;;;;;20.94;64.67;99329.84;1699699;83;20121;-63
2022/08/04 00:42:45;;;;;;;;;;;;;;;20.93;64.88;99337.69;1641994;84;20154;-62
2022/08/04 00:45:30;;;;;;;;;;;;;;;20.87;64.97;99336.77;1696491;83;20442;-63
2022/08/04 00:48:30;;;;;;;;;;;;;;;20.83;65.19;99336.94;1679448;84;21238;-62
2022/08/04 00:51:33;;;;;;;;;;;;;;;20.79;65.28;99340.36;1687181;83;20400;-61
2022/08/04 00:54:18;;;;;;;;;;;;;;;20.74;65.59;99342.44;1679878;84;20413;-64
2022/08/04 00:57:11;;;;;;;;;;;;;;;20.68;65.68;99339.33;1685591;83;21225;-62
2022/08/04 00:59:47;;;;;;;;;;;;;;;20.68;65.87;99342.03;1688873;84;20094;-62
2022/08/04 01:02:37;;;;;;;;;;;;;;;20.64;65.92;99346.28;1703660;84;21293;-62
2022/08/04 01:05:06;;;;;;;;;;;;;;;20.60;65.97;99349.16;1693294;84;20085;-61
2022/08/04 01:07:55;;;;;;;;;;;;;;;20.58;66.12;99347.23;1703783;83;20417;-62
2022/08/04 01:10:31;;;;;;;;;;;;;;;20.58;66.19;99347.23;1709058;84;20130;-61
2022/08/04 01:13:13;;;;;;;;;;;;;;;20.55;66.33;99349.58;1689049;83;20156;-62
2022/08/04 01:16:06;;;;;;;;;;;;;;;20.56;66.28;99347.17;1680714;84;21174;-62
2022/08/04 01:19:01;;;;;;;;;;;;;;;20.53;66.27;99351.17;1692159;83;20130;-62
2022/08/04 01:21:40;;;;;;;;;;;;;;;20.50;66.50;99354.34;1683410;84;20451;-62
2022/08/04 01:24:22;;;;;;;;;;;;;;;20.43;66.72;99348.26;1697781;84;20114;-62
2022/08/04 01:27:11;;;;;;;;;;;;;;;20.41;66.78;99357.66;1700108;83;20125;-62
2022/08/04 01:29:41;;;;;;;;;;;;;;;20.39;66.92;99359.23;1659036;84;22255;-65
2022/08/04 01:32:14;;;;;;;;;;;;;;;20.35;67.10;99356.72;1677366;84;20101;-65
2022/08/04 01:34:42;;;;;;;;;;;;;;;20.31;67.31;99359.58;1703925;84;20086;-62
2022/08/04 01:37:11;;;;;;;;;;;;;;;20.30;67.28;99360.66;1682770;84;20104;-62
2022/08/04 01:39:44;;;;;;;;;;;;;;;20.27;67.35;99363.83;1704250;83;20443;-65
2022/08/04 01:42:10;;;;;;;;;;;;;;;20.25;67.47;99360.02;1703246;84;21767;-63
2022/08/04 01:44:38;;;;;;;;;;;;;;;20.23;67.66;99357.23;1675397;84;20421;-62
2022/08/04 01:47:04;;;;;;;;;;;;;;;20.19;67.72;99358.74;1678271;84;20435;-62
2022/08/04 01:49:31;;;;;;;;;;;;;;;20.14;67.86;99359.98;1681939;84;20086;-62
2022/08/04 01:51:57;;;;;;;;;;;;;;;20.12;67.90;99358.05;1689503;84;20102;-66
2022/08/04 01:54:24;;;;;;;;;;;;;;;20.10;67.94;99359.61;1679701;84;21182;-66
2022/08/04 01:56:51;;;;;;;;;;;;;;;20.06;67.95;99363.85;1702392;84;20118;-63
2022/08/04 01:59:19;;;;;;;;;;;;;;;20.00;68.08;99362.59;1703453;84;20114;-63
2022/08/04 02:01:46;;;;;;;;;;;;;;;19.94;68.25;99360.33;1684748;84;20123;-62
2022/08/04 02:04:19;;;;;;;;;;;;;;;19.91;68.35;99359.97;1676190;84;20100;-63
2022/08/04 02:07:12;;;;;;;;;;;;;;;19.86;68.50;99359.32;1679758;84;21110;-62
2022/08/04 02:09:54;;;;;;;;;;;;;;;19.82;68.65;99362.17;1703398;84;20114;-62
2022/08/04 02:12:27;;;;;;;;;;;;;;;19.76;68.84;99357.73;1701752;84;20448;-63
2022/08/04 02:14:56;;;;;;;;;;;;;;;19.73;69.04;99358.19;1698431;84;20093;-66
2022/08/04 02:17:29;;;;;;;;;;;;;;;19.69;69.14;99353.77;1680652;84;20128;-63
2022/08/04 02:20:06;;;;;;;;;;;;;;;19.64;69.28;99356.34;1682465;84;21173;-63
2022/08/04 02:22:33;;;;;;;;;;;;;;;19.61;69.39;99358.14;1678087;84;20092;-62
2022/08/04 02:25:07;;;;;;;;;;;;;;;19.60;69.63;99352.47;1701167;84;20121;-62
2022/08/04 02:27:59;;;;;;;;;;;;;;;19.59;69.72;99353.52;1703033;83;20429;-63
2022/08/04 02:30:29;;;;;;;;;;;;;;;19.60;69.88;99355.17;1682340;84;20124;-63
2022/08/04 02:32:56;;;;;;;;;;;;;;;19.61;69.95;99357.31;1699290;83;21104;-67
2022/08/04 02:35:26;;;;;;;;;;;;;;;19.63;70.01;99362.78;1695753;84;20098;-63
2022/08/04 02:37:57;;;;;;;;;;;;;;;19.63;70.01;99361.43;1703678;84;20112;-64
2022/08/04 02:40:23;;;;;;;;;;;;;;;19.61;70.04;99356.80;1685611;84;20100;-64
2022/08/04 02:42:49;;;;;;;;;;;;;;;19.61;70.13;99360.02;1683727;84;20159;-63
2022/08/04 02:45:17;;;;;;;;;;;;;;;19.59;70.24;99365.66;1700679;83;21119;-67
2022/08/04 02:47:44;;;;;;;;;;;;;;;19.60;70.25;99366.48;1694371;83;20108;-63
2022/08/04 02:50:10;;;;;;;;;;;;;;;19.59;70.32;99376.45;1684211;84;20091;-64
2022/08/04 02:52:36;;;;;;;;;;;;;;;19.57;70.18;99370.47;1687368;83;20097;-63
2022/08/04 02:55:04;;;;;;;;;;;;;;;19.52;69.89;99360.89;1690577;83;20444;-64
2022/08/04 02:57:30;;;;;;;;;;;;;;;19.43;69.95;99360.91;1708500;84;21144;-64
2022/08/04 03:00:09;;;;;;;;;;;;;;;19.40;70.30;99369.45;1685483;84;21016;-66
2022/08/04 03:02:43;;;;;;;;;;;;;;;19.41;70.50;99367.07;1679416;84;20406;-61
2022/08/04 03:05:18;;;;;;;;;;;;;;;19.42;70.61;99366.55;1690959;84;20141;-64
2022/08/04 03:08:06;;;;;;;;;;;;;;;19.43;70.69;99360.91;1687361;84;20089;-65
2022/08/04 03:10:52;;;;;;;;;;;;;;;19.43;70.68;99366.31;1694089;83;21184;-63
2022/08/04 03:13:37;;;;;;;;;;;;;;;19.41;70.70;99360.84;1711467;84;20121;-62
2022/08/04 03:16:19;;;;;;;;;;;;;;;19.36;70.70;99367.42;1712411;84;20085;-65
2022/08/04 03:18:58;;;;;;;;;;;;;;;19.35;70.96;99372.52;1700899;84;20122;-65
2022/08/04 03:21:54;;;;;;;;;;;;;;;19.35;70.99;99370.64;1688945;84;20108;-64
2022/08/04 03:24:39;;;;;;;;;;;;;;;19.36;70.94;99372.30;1689654;84;21167;-63
2022/08/04 03:27:09;;;;;;;;;;;;;;;19.34;71.07;99374.94;1688978;85;20088;-61
2022/08/04 03:29:54;;;;;;;;;;;;;;;19.31;71.23;99380.26;1685961;84;20198;-63
2022/08/04 03:32:41;;;;;;;;;;;;;;;19.33;71.24;99380.84;1712485;83;20090;-63
2022/08/04 03:35:46;;;;;;;;;;;;;;;19.32;71.36;99381.09;1715900;83;20085;-62
2022/08/04 03:38:40;;;;;;;;;;;;;;;19.36;71.26;99368.78;1655985;86;21172;-62
2022/08/04 03:41:38;;;;;;;;;;;;;;;19.39;71.37;99373.23;1695947;84;20443;-62
2022/08/04 03:44:31;;;;;;;;;;;;;;;19.44;71.48;99372.02;1716397;83;20117;-62
2022/08/04 03:47:25;;;;;;;;;;;;;;;19.49;71.42;99382.11;1679855;85;20118;-63
2022/08/04 03:49:56;;;;;;;;;;;;;;;19.53;71.43;99372.48;1693150;83;20183;-67
2022/08/04 03:55:48;;;;;;;;;;;;;;;19.69;71.40;99373.17;1716291;83;20157;-64
2022/08/04 03:58:35;;;;;;;;;;;;;;;19.79;71.23;99376.13;1715793;83;20241;-66
2022/08/04 04:01:22;;;;;;;;;;;;;;;19.97;71.07;99371.19;1670096;86;20091;-64
2022/08/04 04:03:58;;;;;;;;;;;;;;;20.22;70.86;99373.13;1686475;85;20151;-62
2022/08/04 04:07:00;;;;;;;;;;;;;;;20.64;70.50;99373.31;1693156;84;21164;-66
2022/08/04 04:09:45;;;;;;;;;;;;;;;21.15;69.44;99367.61;1693910;84;20087;-63
2022/08/04 04:12:21;;;;;;;;;;;;;;;21.81;67.71;99367.75;1714683;83;20117;-63
2022/08/04 04:15:09;;;;;;;;;;;;;;;22.50;65.91;99369.66;1670579;86;20103;-63
2022/08/04 04:17:42;;;;;;;;;;;;;;;23.19;64.07;99371.65;1697960;84;20433;-63
2022/08/04 04:20:15;;;;;;;;;;;;;;;23.91;61.35;99369.92;1711754;83;21214;-62
2022/08/04 04:22:51;;;;;;;;;;;;;;;24.52;58.86;99373.94;1698433;84;20077;-66
2022/08/04 04:25:30;;;;;;;;;;;;;;;25.03;56.82;99373.12;1714594;83;20101;-63
2022/08/04 04:28:10;;;;;;;;;;;;;;;25.59;55.12;99369.22;1710251;83;20104;-64
2022/08/04 04:30:51;;;;;;;;;;;;;;;26.14;53.52;99372.54;1701978;83;20119;-62
2022/08/04 04:33:27;;;;;;;;;;;;;;;26.65;51.57;99380.06;1702193;84;21824;-63
2022/08/04 04:36:12;;;;;;;;;;;;;;;27.08;50.26;99375.32;1697467;84;20102;-62
2022/08/04 04:38:45;;;;;;;;;;;;;;;27.46;49.00;99380.05;1714972;83;20399;-62
2022/08/04 04:41:38;;;;;;;;;;;;;;;27.85;47.76;99380.05;1713792;83;20099;-64
2022/08/04 04:44:34;;;;;;;;;;;;;;;28.20;46.70;99369.41;1700933;83;20119;-64
2022/08/04 04:47:20;;;;;;;;;;;;;;;28.44;45.75;99373.55;1703913;83;20549;-63
2022/08/04 04:50:05;;;;;;;;;;;;;;;28.30;45.33;99372.05;1683097;84;20433;-62
2022/08/04 04:52:49;;;;;;;;;;;;;;;28.11;45.45;99372.48;1701360;83;20468;-63
2022/08/04 04:55:35;;;;;;;;;;;;;;;27.67;45.90;99376.64;1669006;84;20087;-63
2022/08/04 04:58:02;;;;;;;;;;;;;;;27.23;46.79;99381.24;1697063;84;20091;-63
2022/08/04 05:00:35;;;;;;;;;;;;;;;26.87;47.57;99371.86;1698663;84;21116;-61
2022/08/04 05:03:13;;;;;;;;;;;;;;;26.49;48.20;99377.92;1676001;84;20138;-63
2022/08/04 05:05:44;;;;;;;;;;;;;;;26.08;49.24;99377.68;1716081;83;20144;-65
2022/08/04 05:08:33;;;;;;;;;;;;;;;25.89;50.07;99387.51;1700099;83;20099;-68
2022/08/04 05:11:22;;;;;;;;;;;;;;;26.05;50.18;99385.03;1698392;84;20132;-63
2022/08/04 05:13:56;;;;;;;;;;;;;;;26.21;50.33;99388.06;1697330;84;21131;-63
2022/08/04 05:16:38;;;;;;;;;;;;;;;26.91;49.54;99384.38;1687301;84;20164;-69
2022/08/04 05:19:30;;;;;;;;;;;;;;;27.70;47.76;99378.80;1677305;84;20209;-67
2022/08/04 05:22:02;;;;;;;;;;;;;;;28.48;46.26;99374.59;1697460;84;20174;-69
2022/08/04 05:24:30;;;;;;;;;;;;;;;29.34;44.19;99375.25;1695406;84;20157;-69
2022/08/04 05:27:00;;;;;;;;;;;;;;;30.03;43.01;99370.13;1697687;84;21114;-73
2022/08/04 05:29:32;;;;;;;;;;;;;;;30.67;41.59;99374.73;1697656;84;20090;-70
2022/08/04 05:32:00;;;;;;;;;;;;;;;31.11;40.60;99378.52;1687322;84;20157;-71
2022/08/04 05:34:28;;;;;;;;;;;;;;;31.72;39.85;99383.51;1695274;84;20152;-70
2022/08/04 05:36:57;;;;;;;;;;;;;;;32.47;38.64;99379.98;1697952;84;20185;-71
2022/08/04 05:39:27;;;;;;;;;;;;;;;33.10;36.99;99382.40;1693337;84;21319;-69
2022/08/04 05:41:54;;;;;;;;;;;;;;;33.59;36.42;99378.44;1695262;84;20099;-70
2022/08/04 05:44:21;;;;;;;;;;;;;;;34.21;35.18;99374.77;1695394;84;20214;-69
2022/08/04 05:46:49;;;;;;;;;;;;;;;34.55;34.49;99380.75;1696558;84;20159;-71
2022/08/04 05:49:16;;;;;;;;;;;;;;;34.92;33.77;99377.22;1698032;84;20139;-72
2022/08/04 05:51:43;;;;;;;;;;;;;;;35.19;33.07;99375.41;1696535;84;21786;-69
2022/08/04 05:54:10;;;;;;;;;;;;;;;35.38;32.77;99386.59;1690408;83;20158;-70
2022/08/04 05:56:37;;;;;;;;;;;;;;;35.83;32.45;99383.39;1686314;83;20240;-70
2022/08/04 05:59:04;;;;;;;;;;;;;;;36.32;31.53;99383.05;1661051;84;20461;-68
2022/08/04 06:01:30;;;;;;;;;;;;;;;36.75;30.77;99381.17;1697486;84;20198;-71
2022/08/04 06:03:58;;;;;;;;;;;;;;;37.07;30.07;99374.18;1698035;84;21163;-71
2022/08/04 06:06:24;;;;;;;;;;;;;;;37.17;29.65;99375.66;1698024;84;20143;-70
2022/08/04 06:08:50;;;;;;;;;;;;;;;37.33;29.69;99372.41;1685780;84;20454;-70
2022/08/04 06:11:17;;;;;;;;;;;;;;;37.67;29.01;99376.06;1697967;84;20180;-70
2022/08/04 06:13:45;;;;;;;;;;;;;;;37.91;28.56;99367.44;1696113;84;20167;-70
2022/08/04 06:16:12;;;;;;;;;;;;;;;38.14;28.56;99369.88;1690073;84;21272;-69
2022/08/04 06:18:39;;;;;;;;;;;;;;;38.44;27.61;99375.27;1697981;84;20089;-70
2022/08/04 06:21:06;;;;;;;;;;;;;;;38.14;27.67;99369.88;1698266;84;20112;-69
2022/08/04 06:23:32;;;;;;;;;;;;;;;37.96;28.26;99376.33;1701734;84;20482;-69
2022/08/04 06:25:59;;;;;;;;;;;;;;;38.11;28.24;99372.78;1710411;84;20207;-70
2022/08/04 06:28:26;;;;;;;;;;;;;;;38.41;27.69;99367.64;1700424;83;21171;-71
2022/08/04 06:30:54;;;;;;;;;;;;;;;38.58;27.66;99367.89;1695814;84;20282;-71
2022/08/04 06:33:35;;;;;;;;;;;;;;;38.89;27.18;99374.28;1681963;84;20168;-71
2022/08/04 06:36:05;;;;;;;;;;;;;;;39.24;26.93;99362.41;1682120;84;20147;-71
2022/08/04 06:38:34;;;;;;;;;;;;;;;39.70;26.44;99372.60;1705621;84;20185;-70
2022/08/04 06:41:02;;;;;;;;;;;;;;;39.93;25.98;99369.30;1705148;84;21795;-72
2022/08/04 06:43:29;;;;;;;;;;;;;;;40.31;25.64;99367.67;1682615;84;20100;-71
2022/08/04 06:45:55;;;;;;;;;;;;;;;40.72;24.72;99371.02;1686306;84;20466;-70
2022/08/04 06:48:21;;;;;;;;;;;;;;;40.57;25.13;99364.98;1707968;84;20451;-71
2022/08/04 06:50:48;;;;;;;;;;;;;;;40.82;24.96;99359.23;1690005;84;20088;-71
2022/08/04 06:53:15;;;;;;;;;;;;;;;41.03;24.61;99367.16;1692254;84;21164;-70
2022/08/04 06:55:42;;;;;;;;;;;;;;;41.30;24.51;99358.19;1692573;84;20116;-71
2022/08/04 06:58:08;;;;;;;;;;;;;;;41.69;24.08;99355.36;1702653;84;20168;-72
2022/08/04 07:00:35;;;;;;;;;;;;;;;42.15;23.61;99351.75;1703111;84;20114;-67
2022/08/04 07:03:02;;;;;;;;;;;;;;;42.60;22.94;99350.61;1704473;84;20096;-71
2022/08/04 07:05:29;;;;;;;;;;;;;;;42.70;22.56;99352.70;1695952;84;21202;-67
2022/08/04 07:07:55;;;;;;;;;;;;;;;42.67;22.29;99347.88;1700975;84;20336;-68
2022/08/04 07:10:22;;;;;;;;;;;;;;;42.54;22.36;99344.57;1698400;84;20412;-70
2022/08/04 07:12:49;;;;;;;;;;;;;;;42.27;22.52;99340.28;1689354;84;20213;-70
2022/08/04 07:15:16;;;;;;;;;;;;;;;42.19;22.72;99339.41;1687661;84;20196;-71
2022/08/04 07:17:42;;;;;;;;;;;;;;;42.13;22.71;99334.57;1709286;84;21763;-70
2022/08/04 07:20:09;;;;;;;;;;;;;;;41.89;23.11;99337.86;1693290;83;20457;-70
2022/08/04 07:22:35;;;;;;;;;;;;;;;42.12;23.03;99339.34;1690877;83;20111;-71
2022/08/04 07:25:02;;;;;;;;;;;;;;;42.45;22.40;99339.27;1692267;83;20608;-70
2022/08/04 07:27:28;;;;;;;;;;;;;;;42.51;22.38;99341.11;1696474;83;20172;-71
2022/08/04 07:29:54;;;;;;;;;;;;;;;42.82;22.33;99342.59;1692598;83;21117;-76
2022/08/04 07:32:21;;;;;;;;;;;;;;;43.17;21.82;99342.88;1705279;83;20148;-72
2022/08/04 07:34:49;;;;;;;;;;;;;;;43.23;21.45;99335.70;1692155;83;20181;-79
2022/08/04 07:37:15;;;;;;;;;;;;;;;42.76;21.96;99341.37;1710954;83;20358;-76
2022/08/04 07:39:41;;;;;;;;;;;;;;;42.60;21.84;99338.03;1706458;83;20092;-77
2022/08/04 07:42:08;;;;;;;;;;;;;;;42.31;22.45;99338.34;1692229;83;20666;-75
2022/08/04 07:44:34;;;;;;;;;;;;;;;42.49;22.48;99335.70;1693937;83;20459;-74
2022/08/04 07:47:02;;;;;;;;;;;;;;;42.97;22.10;99335.93;1699939;83;20138;-72
2022/08/04 07:49:29;;;;;;;;;;;;;;;43.46;21.62;99337.67;1699993;83;20153;-64
2022/08/04 07:51:55;;;;;;;;;;;;;;;43.87;21.04;99334.05;1694860;83;20091;-63
2022/08/04 07:54:22;;;;;;;;;;;;;;;43.90;20.68;99338.06;1691115;83;22097;-65
2022/08/04 07:56:48;;;;;;;;;;;;;;;43.80;20.61;99331.83;1718198;83;20097;-64
2022/08/04 07:59:15;;;;;;;;;;;;;;;43.58;20.82;99335.92;1701683;83;20143;-63
2022/08/04 08:01:41;;;;;;;;;;;;;;;43.31;21.15;99335.17;1690863;83;20079;-64
2022/08/04 08:04:09;;;;;;;;;;;;;;;43.50;21.10;99331.48;1690945;83;20100;-62
2022/08/04 08:06:36;;;;;;;;;;;;;;;43.71;20.84;99329.39;1690930;83;21162;-66
2022/08/04 08:09:09;;;;;;;;;;;;;;;43.77;20.67;99329.22;1704078;83;20097;-64
2022/08/04 08:11:35;;;;;;;;;;;;;;;43.52;20.93;99326.88;1706112;83;20180;-64
2022/08/04 08:14:02;;;;;;;;;;;;;;;43.34;20.86;99328.79;1700571;83;20107;-73
2022/08/04 08:16:29;;;;;;;;;;;;;;;43.02;21.48;99324.41;1702090;83;20086;-73
2022/08/04 08:18:56;;;;;;;;;;;;;;;43.21;21.32;99324.09;1690665;83;21803;-72
2022/08/04 08:21:22;;;;;;;;;;;;;;;43.14;21.30;99325.47;1693978;83;20178;-71
2022/08/04 08:23:49;;;;;;;;;;;;;;;42.33;21.93;99326.98;1693405;83;20099;-70
2022/08/04 08:26:15;;;;;;;;;;;;;;;41.02;23.09;99328.69;1698101;83;20089;-70
2022/08/04 08:28:41;;;;;;;;;;;;;;;40.07;24.17;99327.81;1698359;83;20116;-69
2022/08/04 08:31:08;;;;;;;;;;;;;;;40.03;24.78;99329.70;1698645;83;21145;-70
2022/08/04 08:33:34;;;;;;;;;;;;;;;40.46;24.16;99329.12;1700563;83;20097;-70
2022/08/04 08:36:03;;;;;;;;;;;;;;;40.94;23.74;99322.78;1700209;83;20144;-69
2022/08/04 08:38:46;;;;;;;;;;;;;;;41.60;23.20;99328.30;1699899;83;20123;-70
2022/08/04 08:41:49;;;;;;;;;;;;;;;42.07;22.78;99331.87;1691020;83;20119;-68
2022/08/04 08:44:44;;;;;;;;;;;;;;;42.10;22.67;99331.92;1695433;83;21185;-70
2022/08/04 08:47:36;;;;;;;;;;;;;;;41.46;23.03;99336.52;1704373;83;20171;-74
2022/08/04 08:50:19;;;;;;;;;;;;;;;39.84;24.60;99344.25;1705098;83;20452;-68
2022/08/04 08:52:58;;;;;;;;;;;;;;;39.96;25.19;99344.89;1703509;83;20607;-68
2022/08/04 08:55:38;;;;;;;;;;;;;;;40.88;24.15;99336.83;1705227;83;21030;-69
2022/08/04 08:58:33;;;;;;;;;;;;;;;41.16;23.43;99334.48;1695041;83;21152;-67
2022/08/04 09:01:27;;;;;;;;;;;;;;;40.38;24.36;99342.71;1699853;83;20417;-69
2022/08/04 09:04:03;;;;;;;;;;;;;;;40.01;24.66;99348.77;1700962;83;20432;-71
2022/08/04 09:06:45;;;;;;;;;;;;;;;40.33;24.33;99343.02;1698372;83;20618;-69
2022/08/04 09:09:31;;;;;;;;;;;;;;;40.21;24.41;99344.56;1717834;83;35875;-69
2022/08/04 09:12:10;;;;;;;;;;;;;;;39.12;25.35;99347.19;1700912;83;21238;-69
2022/08/04 09:14:43;;;;;;;;;;;;;;;38.52;25.95;99342.34;1708676;83;20507;-69
2022/08/04 09:17:19;;;;;;;;;;;;;;;39.14;25.64;99342.06;1710528;83;20085;-69
2022/08/04 09:20:01;;;;;;;;;;;;;;;40.36;24.18;99340.27;1709577;83;20094;-68
2022/08/04 09:22:31;;;;;;;;;;;;;;;40.65;23.77;99338.81;1705447;83;20152;-68
2022/08/04 09:25:24;;;;;;;;;;;;;;;39.63;24.48;99341.03;1709004;83;21344;-68
2022/08/04 09:27:54;;;;;;;;;;;;;;;38.11;26.07;99342.23;1702682;83;20128;-69
2022/08/04 09:30:30;;;;;;;;;;;;;;;36.60;27.92;99343.06;1698254;83;20190;-69
2022/08/04 09:33:24;;;;;;;;;;;;;;;36.09;29.02;99349.96;1702411;82;20728;-70
2022/08/04 09:36:00;;;;;;;;;;;;;;;35.98;29.64;99341.84;1707375;83;20495;-69
2022/08/04 09:38:39;;;;;;;;;;;;;;;35.77;29.86;99343.27;1723510;82;21817;-69
2022/08/04 09:41:24;;;;;;;;;;;;;;;35.58;30.28;99336.02;1710605;83;20185;-69
2022/08/04 09:44:11;;;;;;;;;;;;;;;35.27;30.66;99340.55;1710875;84;20132;-70
2022/08/04 09:46:47;;;;;;;;;;;;;;;34.78;31.25;99333.84;1708808;84;20117;-70
2022/08/04 09:49:17;;;;;;;;;;;;;;;34.67;31.63;99335.34;1711121;83;20122;-70
2022/08/04 09:52:08;;;;;;;;;;;;;;;34.56;31.53;99335.47;1692412;84;21164;-67
2022/08/04 09:55:04;;;;;;;;;;;;;;;34.48;31.56;99327.99;1710874;84;20109;-68
2022/08/04 09:57:51;;;;;;;;;;;;;;;34.52;32.02;99326.99;1682402;84;20125;-68
2022/08/04 10:00:19;;;;;;;;;;;;;;;34.51;32.24;99325.95;1692670;83;20500;-70
2022/08/04 10:02:51;;;;;;;;;;;;;;;34.56;32.20;99322.48;1679972;84;20104;-69
2022/08/04 10:05:20;;;;;;;;;;;;;;;34.56;32.03;99324.42;1712058;83;21091;-69
2022/08/04 10:08:05;;;;;;;;;;;;;;;34.46;31.92;99313.72;1690776;83;20119;-70
2022/08/04 10:10:40;;;;;;;;;;;;;;;34.23;31.73;99322.00;1686992;83;20184;-67
2022/08/04 10:13:18;;;;;;;;;;;;;;;33.90;32.07;99322.52;1688124;83;20182;-68
2022/08/04 10:16:17;;;;;;;;;;;;;;;33.68;32.38;99324.11;1691041;83;20087;-69
2022/08/04 10:19:21;;;;;;;;;;;;;;;33.54;32.65;99321.48;1691128;83;21738;-68
2022/08/04 10:22:16;;;;;;;;;;;;;;;33.37;33.35;99315.16;1699346;83;20095;-69
2022/08/04 10:25:06;;;;;;;;;;;;;;;33.15;33.86;99311.97;1690281;83;20424;-69
2022/08/04 10:27:39;;;;;;;;;;;;;;;33.17;34.10;99308.88;1710764;83;20120;-68
2022/08/04 10:30:13;;;;;;;;;;;;;;;33.10;34.11;99314.89;1691283;83;20253;-68
2022/08/04 10:33:05;;;;;;;;;;;;;;;32.90;34.35;99318.23;1716790;83;21281;-68
2022/08/04 10:35:41;;;;;;;;;;;;;;;32.65;34.86;99321.70;1696562;83;20441;-70
2022/08/04 10:38:23;;;;;;;;;;;;;;;32.36;35.35;99324.39;1683728;83;20084;-69
2022/08/04 10:41:10;;;;;;;;;;;;;;;32.16;35.56;99315.87;1690835;83;20091;-69
2022/08/04 10:43:48;;;;;;;;;;;;;;;32.06;35.89;99315.58;1716200;82;20507;-69
2022/08/04 10:46:33;;;;;;;;;;;;;;;32.03;36.10;99319.52;1677585;84;21171;-69
2022/08/04 10:49:18;;;;;;;;;;;;;;;31.96;36.13;99316.38;1667472;84;20132;-69
2022/08/04 10:51:47;;;;;;;;;;;;;;;32.08;36.40;99318.00;1713990;83;20135;-69
2022/08/04 10:54:20;;;;;;;;;;;;;;;32.26;36.25;99305.96;1738249;82;20083;-68
2022/08/04 10:56:52;;;;;;;;;;;;;;;32.51;36.04;99308.03;1706179;84;20085;-69
2022/08/04 10:59:21;;;;;;;;;;;;;;;32.69;35.44;99306.99;1674282;84;21235;-69
2022/08/04 11:01:48;;;;;;;;;;;;;;;32.74;35.25;99304.66;1713333;83;20116;-68
2022/08/04 11:04:24;;;;;;;;;;;;;;;32.74;35.12;99308.78;1740520;82;20148;-70
2022/08/04 11:06:51;;;;;;;;;;;;;;;32.55;35.12;99304.09;1690509;82;20149;-69
2022/08/04 11:09:18;;;;;;;;;;;;;;;32.47;35.60;99303.45;1709317;84;20086;-69
2022/08/04 11:11:48;;;;;;;;;;;;;;;32.51;35.74;99298.95;1698499;84;21155;-69
2022/08/04 11:14:18;;;;;;;;;;;;;;;32.51;35.65;99297.02;1706832;84;20085;-68
2022/08/04 11:17:06;;;;;;;;;;;;;;;32.52;35.61;99300.03;1701340;84;20430;-69
2022/08/04 11:19:39;;;;;;;;;;;;;;;32.51;35.44;99291.52;1692466;84;20089;-68
2022/08/04 11:22:08;;;;;;;;;;;;;;;32.46;35.45;99285.34;1686404;84;20122;-68
2022/08/04 11:24:53;;;;;;;;;;;;;;;32.41;35.78;99292.36;1677142;84;20562;-69
2022/08/04 11:27:49;;;;;;;;;;;;;;;32.34;35.69;99290.05;1675941;84;20404;-68
2022/08/04 11:30:16;;;;;;;;;;;;;;;32.29;35.88;99295.70;1677684;84;20119;-68
2022/08/04 11:32:48;;;;;;;;;;;;;;;32.22;36.13;99289.84;1677607;84;20098;-69
2022/08/04 11:35:30;;;;;;;;;;;;;;;32.07;36.42;99293.80;1677550;84;20098;-68
2022/08/04 11:38:31;;;;;;;;;;;;;;;31.90;36.35;99288.19;1683473;84;21145;-68
2022/08/04 11:41:02;;;;;;;;;;;;;;;31.55;36.79;99291.25;1676516;84;20118;-67
2022/08/04 11:43:55;;;;;;;;;;;;;;;31.18;37.25;99290.20;1677648;84;20085;-68
2022/08/04 11:46:37;;;;;;;;;;;;;;;30.94;37.68;99288.27;1679813;84;20430;-69
2022/08/04 11:49:10;;;;;;;;;;;;;;;30.83;38.32;99278.58;1691287;83;20109;-69
2022/08/04 11:51:37;;;;;;;;;;;;;;;30.92;38.44;99286.39;1699238;83;21092;-69
2022/08/04 11:54:03;;;;;;;;;;;;;;;31.08;37.73;99277.49;1671036;84;20436;-69
2022/08/04 11:56:30;;;;;;;;;;;;;;;31.24;37.25;99280.70;1681585;84;20098;-70
2022/08/04 11:58:56;;;;;;;;;;;;;;;31.41;36.88;99281.42;1683801;84;20121;-70
2022/08/04 12:01:26;;;;;;;;;;;;;;;31.61;36.50;99272.14;1677158;84;20122;-69
2022/08/04 12:04:08;;;;;;;;;;;;;;;31.79;36.16;99271.69;1677488;84;21307;-69
2022/08/04 12:06:56;;;;;;;;;;;;;;;31.94;35.97;99269.13;1675904;84;20090;-68
2022/08/04 12:09:45;;;;;;;;;;;;;;;32.02;36.30;99270.55;1677649;84;20114;-67
2022/08/04 12:12:29;;;;;;;;;;;;;;;31.95;36.34;99273.48;1677354;84;20101;-68
2022/08/04 12:15:11;;;;;;;;;;;;;;;31.82;36.46;99277.13;1677496;84;20420;-68
2022/08/04 12:17:49;;;;;;;;;;;;;;;31.68;36.78;99275.25;1675127;84;21995;-68
2022/08/04 12:20:17;;;;;;;;;;;;;;;31.59;37.02;99273.02;1677645;84;20110;-68
2022/08/04 12:22:46;;;;;;;;;;;;;;;31.51;37.14;99272.39;1702082;83;20463;-68
2022/08/04 12:25:19;;;;;;;;;;;;;;;31.41;37.35;99275.36;1703048;84;20102;-68
2022/08/04 12:27:54;;;;;;;;;;;;;;;31.31;37.50;99264.62;1683857;84;20417;-68
2022/08/04 12:30:20;;;;;;;;;;;;;;;31.19;37.67;99265.70;1684754;83;21144;-69
2022/08/04 12:33:04;;;;;;;;;;;;;;;31.10;38.08;99258.75;1712270;84;20154;-69
2022/08/04 12:35:52;;;;;;;;;;;;;;;31.08;38.44;99261.56;1692129;84;20178;-68
2022/08/04 12:38:19;;;;;;;;;;;;;;;31.05;38.70;99255.34;1697501;84;20120;-68
2022/08/04 12:40:54;;;;;;;;;;;;;;;31.03;38.47;99252.06;1682982;83;20128;-69
2022/08/04 12:43:38;;;;;;;;;;;;;;;31.00;38.79;99243.88;1678056;84;21102;-69
2022/08/04 12:46:22;;;;;;;;;;;;;;;30.99;39.46;99256.02;1679242;84;20123;-69
2022/08/04 12:48:48;;;;;;;;;;;;;;;30.84;40.06;99253.58;1713789;82;20084;-68
2022/08/04 12:51:14;;;;;;;;;;;;;;;30.59;40.36;99259.59;1710974;83;20125;-69
2022/08/04 12:53:42;;;;;;;;;;;;;;;30.40;41.07;99256.95;1689443;84;20458;-69
2022/08/04 12:56:10;;;;;;;;;;;;;;;30.31;41.11;99254.66;1706256;84;21962;-67
2022/08/04 12:58:39;;;;;;;;;;;;;;;30.28;40.87;99253.88;1722509;83;20412;-69
2022/08/04 13:01:08;;;;;;;;;;;;;;;30.26;40.32;99246.52;1676680;82;20088;-69
2022/08/04 13:03:38;;;;;;;;;;;;;;;30.23;40.41;99245.75;1687862;84;20102;-68
2022/08/04 13:06:04;;;;;;;;;;;;;;;30.25;40.42;99248.18;1684559;84;20446;-69
2022/08/04 13:08:31;;;;;;;;;;;;;;;30.27;39.92;99243.23;1688770;84;21165;-68
2022/08/04 13:10:58;;;;;;;;;;;;;;;30.28;40.03;99245.66;1710013;83;20097;-68
2022/08/04 13:13:26;;;;;;;;;;;;;;;30.30;40.00;99230.25;1701969;83;20417;-69
2022/08/04 13:16:00;;;;;;;;;;;;;;;30.33;40.16;99233.20;1690746;83;20446;-68
2022/08/04 13:18:28;;;;;;;;;;;;;;;30.37;40.00;99219.17;1715427;83;20455;-68
2022/08/04 13:20:55;;;;;;;;;;;;;;;30.46;40.08;99224.19;1707798;83;21161;-69
2022/08/04 13:23:21;;;;;;;;;;;;;;;30.55;40.07;99222.36;1664180;84;20457;-69
2022/08/04 13:25:49;;;;;;;;;;;;;;;30.62;40.01;99223.86;1702497;84;20087;-68
2022/08/04 13:28:22;;;;;;;;;;;;;;;30.66;39.93;99222.14;1682370;84;20123;-68
2022/08/04 13:30:58;;;;;;;;;;;;;;;30.64;40.19;99225.17;1702634;84;20120;-68